Time;durP1;ratioP1;P1;durP2;ratioP2;P2;SDS_P1;SDS_P2;PMS_P1;PMS_P2;Temp;Humidity;BMP_temperature;BMP_pressure;BME280_temperature;BME280_humidity;BME280_pressure;Samples;Min_cycle;Max_cycle;Signal;HPM_P1;HPM_P2
2023/12/01 00:00:06;;;;;;;10.30;7.10;;;;;;;11.06;79.04;101267.09;5091661;28;20027;-84
2023/12/01 00:02:32;;;;;;;10.30;6.68;;;;;;;11.29;79.23;101299.84;5092078;28;20044;-84
2023/12/01 00:04:57;;;;;;;9.30;6.25;;;;;;;10.95;79.39;101250.78;5092726;28;20405;-84
2023/12/01 00:07:23;;;;;;;10.15;6.80;;;;;;;10.98;79.07;101270.19;5086392;28;20028;-85
2023/12/01 00:09:49;;;;;;;8.70;6.32;;;;;;;11.12;79.46;101294.50;5076252;28;20111;-85
2023/12/01 00:12:14;;;;;;;9.57;6.47;;;;;;;10.94;79.06;101264.66;5093262;28;20461;-85
2023/12/01 00:14:41;;;;;;;9.98;6.78;;;;;;;11.24;79.17;101316.97;5090280;28;20035;-86
2023/12/01 00:17:07;;;;;;;9.75;6.53;;;;;;;10.96;79.03;101263.97;5092882;28;20173;-86
2023/12/01 00:19:33;;;;;;;11.65;7.20;;;;;;;11.01;79.41;101269.44;5087054;28;20029;-85
2023/12/01 00:21:58;;;;;;;8.95;6.68;;;;;;;10.89;78.97;101235.63;5091345;28;20024;-86
2023/12/01 00:24:24;;;;;;;10.52;7.07;;;;;;;10.91;79.39;101234.00;5088365;28;20332;-85
2023/12/01 00:26:50;;;;;;;10.57;6.72;;;;;;;11.08;79.36;101257.66;5097866;28;20023;-86
2023/12/01 00:29:15;;;;;;;10.80;6.95;;;;;;;11.12;78.74;101257.03;5102730;28;20024;-86
2023/12/01 00:31:41;;;;;;;10.27;6.32;;;;;;;11.26;78.92;101273.50;5090901;28;20038;-86
2023/12/01 00:34:07;;;;;;;10.10;6.93;;;;;;;10.95;78.96;101228.16;5084617;28;20036;-86
2023/12/01 00:36:33;;;;;;;8.55;6.28;;;;;;;11.10;79.14;101262.16;5106979;28;20028;-86
2023/12/01 00:38:58;;;;;;;;;;;;;;;11.20;78.88;101272.34;5108256;28;20481;-84
2023/12/01 00:41:24;;;;;;;9.15;6.35;;;;;;;11.14;78.86;101271.97;5072844;28;19918;-85
2023/12/01 00:43:50;;;;;;;9.20;6.60;;;;;;;10.99;79.07;101232.75;5081665;28;20025;-84
2023/12/01 00:46:15;;;;;;;9.20;6.85;;;;;;;11.10;79.17;101258.63;5084881;28;20039;-84
2023/12/01 00:48:42;;;;;;;9.30;6.40;;;;;;;11.19;79.14;101267.03;5124452;27;20111;-84
2023/12/01 00:51:18;;;;;;;9.73;6.50;;;;;;;11.14;78.84;101248.44;5084906;28;20043;-85
2023/12/01 00:53:43;;;;;;;9.73;6.38;;;;;;;11.02;79.09;101228.53;5089081;28;20028;-85
2023/12/01 00:56:11;;;;;;;9.40;6.07;;;;;;;10.87;79.15;101205.91;5092485;28;20028;-85
2023/12/01 00:58:37;;;;;;;9.32;6.65;;;;;;;10.84;78.78;101189.13;5091757;28;20063;-84
2023/12/01 01:01:05;;;;;;;8.55;6.03;;;;;;;11.16;79.00;101246.84;5097175;28;20059;-85
2023/12/01 01:03:31;;;;;;;9.13;6.75;;;;;;;10.95;78.73;101217.72;5093065;28;20549;-84
2023/12/01 01:05:56;;;;;;;9.95;6.75;;;;;;;11.15;78.99;101239.81;5095610;28;20024;-84
2023/12/01 01:08:22;;;;;;;9.55;6.68;;;;;;;10.87;78.91;101198.06;5094375;28;20027;-84
2023/12/01 01:10:48;;;;;;;9.95;6.22;;;;;;;11.03;78.91;101212.94;5094877;28;20027;-84
2023/12/01 01:13:14;;;;;;;10.25;6.75;;;;;;;11.05;78.59;101219.16;5082373;28;20020;-84
2023/12/01 01:15:40;;;;;;;9.02;6.18;;;;;;;11.06;78.60;101212.22;5097216;28;20051;-84
2023/12/01 01:18:06;;;;;;;9.98;6.78;;;;;;;11.02;78.75;101205.00;5075808;28;20141;-85
2023/12/01 01:20:32;;;;;;;8.90;6.00;;;;;;;11.15;78.50;101220.59;5092483;28;20066;-85
2023/12/01 01:22:58;;;;;;;8.35;6.22;;;;;;;11.17;78.61;101227.72;5092811;28;20040;-85
2023/12/01 01:25:23;;;;;;;9.50;6.30;;;;;;;11.15;79.14;101228.44;5096610;28;20039;-84
2023/12/01 01:27:49;;;;;;;8.65;6.03;;;;;;;11.00;78.93;101200.56;5103142;28;20031;-84
2023/12/01 01:30:15;;;;;;;9.90;6.45;;;;;;;11.10;78.96;101219.44;5093469;28;20055;-85
2023/12/01 01:32:41;;;;;;;9.43;6.57;;;;;;;10.97;78.95;101194.28;5075239;28;20090;-85
2023/12/01 01:35:07;;;;;;;8.07;6.05;;;;;;;10.91;78.87;101181.75;5077934;28;20509;-85
2023/12/01 01:37:33;;;;;;;9.18;6.05;;;;;;;11.07;78.74;101214.00;5089975;28;20680;-85
2023/12/01 01:39:58;;;;;;;;;;;;;;;11.19;78.49;101233.94;5099956;27;20032;-85
2023/12/01 01:42:24;;;;;;;8.73;6.15;;;;;;;11.16;78.75;101239.00;5099008;27;20358;-85
2023/12/01 01:44:50;;;;;;;8.77;6.25;;;;;;;11.14;78.73;101229.25;5091057;28;20024;-85
2023/12/01 01:47:16;;;;;;;9.10;6.28;;;;;;;10.83;78.46;101176.88;5087699;28;20036;-85
2023/12/01 01:49:42;;;;;;;;;;;;;;;11.16;78.88;101233.75;5104429;28;20095;-85
2023/12/01 01:52:07;;;;;;;10.75;6.68;;;;;;;10.84;78.57;101179.59;5094569;28;20075;-84
2023/12/01 01:54:33;;;;;;;9.60;6.82;;;;;;;10.69;78.73;101147.31;5088059;28;20055;-84
2023/12/01 01:57:00;;;;;;;9.38;6.22;;;;;;;11.07;78.57;101222.78;5102968;28;20036;-86
2023/12/01 01:59:25;;;;;;;9.13;6.22;;;;;;;11.05;78.63;101210.41;5105413;28;20097;-84
2023/12/01 02:01:51;;;;;;;10.45;6.18;;;;;;;11.00;78.42;101202.31;5093612;28;20031;-84
2023/12/01 02:04:17;;;;;;;7.80;5.70;;;;;;;11.08;78.70;101213.22;5075174;28;20119;-86
2023/12/01 02:06:46;;;;;;;10.95;6.63;;;;;;;11.08;78.76;101208.00;5095560;28;20066;-84
2023/12/01 02:09:13;;;;;;;10.45;6.20;;;;;;;11.02;78.50;101182.38;5093020;28;20428;-83
2023/12/01 02:11:39;;;;;;;9.05;6.15;;;;;;;11.13;78.50;101194.41;5090590;28;20027;-85
2023/12/01 02:14:05;;;;;;;10.27;6.53;;;;;;;11.03;78.47;101180.66;5099856;28;20035;-85
2023/12/01 02:16:31;;;;;;;9.05;6.10;;;;;;;11.00;78.30;101170.94;5085988;28;20802;-85
2023/12/01 02:18:57;;;;;;;8.55;6.30;;;;;;;11.14;78.81;101190.94;5081284;28;20112;-85
2023/12/01 02:21:27;;;;;;;9.18;6.50;;;;;;;10.96;78.68;101156.81;5081020;28;20032;-85
2023/12/01 02:23:53;;;;;;;10.75;6.95;;;;;;;11.15;78.40;101195.38;5090901;28;20023;-85
2023/12/01 02:26:20;;;;;;;10.02;7.00;;;;;;;11.19;78.38;101205.16;5109454;28;20091;-85
2023/12/01 02:28:46;;;;;;;10.02;7.05;;;;;;;10.89;78.63;101156.34;5082534;28;20403;-85
2023/12/01 02:31:12;;;;;;;;;;;;;;;11.16;78.78;101196.28;5086428;28;20115;-85
2023/12/01 02:33:38;;;;;;;10.38;6.60;;;;;;;10.94;78.42;101154.91;5085145;28;19920;-85
2023/12/01 02:36:06;;;;;;;7.63;5.82;;;;;;;11.08;78.21;101172.28;5087162;28;20028;-85
2023/12/01 02:38:33;;;;;;;9.90;6.60;;;;;;;11.13;78.71;101190.84;5083422;28;20032;-85
2023/12/01 02:40:59;;;;;;;10.80;6.45;;;;;;;11.07;78.69;101175.72;5094517;28;20035;-85
2023/12/01 02:43:24;;;;;;;10.68;7.10;;;;;;;11.03;79.13;101164.97;5083481;28;20408;-84
2023/12/01 02:45:50;;;;;;;10.35;6.97;;;;;;;11.07;78.90;101175.72;5075788;28;20036;-84
2023/12/01 02:48:16;;;;;;;9.27;6.78;;;;;;;11.04;78.70;101172.03;5097711;27;20515;-85
2023/12/01 02:50:43;;;;;;;9.63;6.75;;;;;;;10.97;78.86;101174.28;5100002;27;20028;-86
2023/12/01 02:53:09;;;;;;;8.65;6.15;;;;;;;11.03;78.99;101178.06;5081064;28;20118;-86
2023/12/01 02:55:35;;;;;;;11.02;6.22;;;;;;;11.07;78.34;101186.19;5099289;28;20106;-87
2023/12/01 02:58:00;;;;;;;9.30;6.22;;;;;;;10.86;78.44;101141.41;5090648;28;20035;-87
2023/12/01 03:00:26;;;;;;;10.52;6.85;;;;;;;10.83;79.22;101145.53;5085871;28;20029;-86
2023/12/01 03:02:52;;;;;;;8.77;6.47;;;;;;;10.69;78.84;101121.19;5088258;28;20039;-87
2023/12/01 03:05:19;;;;;;;9.80;6.68;;;;;;;11.15;78.30;101184.94;5089494;28;20032;-86
2023/12/01 03:07:45;;;;;;;9.10;6.40;;;;;;;11.07;78.34;101170.50;5106936;28;20024;-85
2023/12/01 03:10:11;;;;;;;10.13;6.90;;;;;;;11.06;78.18;101163.47;5090855;28;20466;-85
2023/12/01 03:12:38;;;;;;;9.35;6.40;;;;;;;11.18;78.31;101176.34;5085174;28;20028;-85
2023/12/01 03:15:06;;;;;;;9.13;6.43;;;;;;;10.77;78.23;101120.88;5072382;28;20032;-85
2023/12/01 03:17:32;;;;;;;9.65;6.35;;;;;;;10.89;78.26;101133.72;5085677;28;20107;-83
2023/12/01 03:19:58;;;;;;;8.30;6.05;;;;;;;11.16;78.07;101175.38;5082413;28;20099;-86
2023/12/01 03:22:24;;;;;;;8.57;5.80;;;;;;;11.11;78.09;101164.66;5072301;28;20404;-84
2023/12/01 03:24:53;;;;;;;8.13;5.78;;;;;;;11.16;77.82;101165.81;5089364;28;20024;-84
2023/12/01 03:27:19;;;;;;;10.98;6.55;;;;;;;11.05;77.75;101137.22;5110540;27;20603;-84
2023/12/01 03:29:45;;;;;;;;;;;;;;;11.17;78.04;101154.53;5071443;28;20524;-85
2023/12/01 03:32:11;;;;;;;7.75;5.72;;;;;;;10.86;77.75;101116.97;5085510;28;19911;-85
2023/12/01 03:34:37;;;;;;;9.02;6.10;;;;;;;11.15;78.11;101166.63;5092801;28;20042;-85
2023/12/01 03:37:03;;;;;;;8.32;6.10;;;;;;;10.84;78.22;101111.69;5083015;28;20024;-85
2023/12/01 03:39:30;;;;;;;9.45;6.70;;;;;;;10.75;78.18;101100.66;5079224;28;20032;-85
2023/12/01 03:42:23;;;;;;;9.15;6.60;;;;;;;11.13;78.20;101165.63;5086723;28;20024;-85
2023/12/01 03:44:49;;;;;;;9.52;6.30;;;;;;;10.94;77.88;101121.84;5083236;28;20531;-85
2023/12/01 03:47:24;;;;;;;9.35;6.50;;;;;;;11.02;77.76;101132.72;5086365;28;20023;-86
2023/12/01 03:49:49;;;;;;;8.77;6.20;;;;;;;11.10;78.31;101152.38;5077358;28;20036;-85
2023/12/01 03:52:38;;;;;;;10.88;6.47;;;;;;;11.11;78.14;101154.19;5086310;28;20024;-86
2023/12/01 03:55:36;;;;;;;9.65;6.65;;;;;;;10.85;77.67;101102.13;5083314;28;20104;-84
2023/12/01 03:58:22;;;;;;;;;;;;;;;;;;;;;
2023/12/01 04:00:52;;;;;;;10.00;6.65;;;;;;;10.45;78.19;101030.16;5084404;28;20153;-85
2023/12/01 04:03:18;;;;;;;8.38;6.20;;;;;;;10.76;77.78;101089.44;5086747;28;20481;-84
2023/12/01 04:05:44;;;;;;;8.52;5.78;;;;;;;10.71;77.94;101078.72;5116115;28;20095;-84
2023/12/01 04:08:09;;;;;;;8.18;6.18;;;;;;;10.78;78.13;101099.16;5087563;28;20023;-85
2023/12/01 04:10:36;;;;;;;9.65;6.63;;;;;;;11.00;77.80;101129.13;5078703;28;20034;-84
2023/12/01 04:15:45;;;;;;;9.25;6.03;;;;;;;10.92;77.88;101118.25;5070766;28;20052;-84
2023/12/01 04:18:11;;;;;;;10.23;6.90;;;;;;;11.13;77.86;101146.41;5096451;28;20024;-84
2023/12/01 04:20:38;;;;;;;;;;;;;;;11.10;77.69;101138.41;5094238;28;20028;-85
2023/12/01 04:23:11;;;;;;;8.48;6.15;;;;;;;10.70;77.67;101076.00;5093053;28;20053;-85
2023/12/01 04:25:38;;;;;;;10.10;6.45;;;;;;;11.10;78.11;101144.53;5090760;28;20034;-85
2023/12/01 04:28:04;;;;;;;8.45;6.15;;;;;;;11.09;78.10;101134.91;5102135;28;20103;-85
2023/12/01 04:30:30;;;;;;;9.45;6.40;;;;;;;10.96;77.69;101116.69;5089451;28;20028;-84
2023/12/01 04:32:57;;;;;;;9.02;6.15;;;;;;;10.81;77.89;101095.81;5086284;28;20031;-85
2023/12/01 04:35:25;;;;;;;8.48;6.35;;;;;;;10.85;77.80;101099.50;5087085;28;20047;-84
2023/12/01 04:37:51;;;;;;;8.55;5.93;;;;;;;11.02;77.76;101127.50;5077045;28;20504;-86
2023/12/01 04:40:17;;;;;;;7.78;5.97;;;;;;;10.79;77.98;101095.75;5080089;28;20043;-84
2023/12/01 04:42:47;;;;;;;8.45;6.40;;;;;;;11.11;77.73;101145.44;5077065;28;20040;-86
2023/12/01 04:45:15;;;;;;;8.57;5.63;;;;;;;11.13;77.68;101133.34;5114797;27;20028;-87
2023/12/01 04:47:41;;;;;;;7.93;5.97;;;;;;;11.08;77.85;101135.69;5102930;28;20151;-86
2023/12/01 04:50:12;;;;;;;7.53;6.05;;;;;;;11.11;77.50;101132.34;5102619;28;20028;-86
2023/12/01 04:52:41;;;;;;;9.18;5.97;;;;;;;11.11;77.52;101137.59;5107723;28;20020;-84
2023/12/01 04:55:11;;;;;;;9.05;6.40;;;;;;;11.02;77.70;101118.78;5101577;28;20484;-85
2023/12/01 04:57:37;;;;;;;10.13;6.20;;;;;;;10.90;77.54;101096.38;5090910;28;20024;-84
2023/12/01 05:00:18;;;;;;;7.85;6.10;;;;;;;11.11;77.68;101134.97;5091493;28;20428;-86
2023/12/01 05:02:55;;;;;;;8.18;6.15;;;;;;;11.03;77.95;101123.16;5083068;28;20040;-86
2023/12/01 05:05:41;;;;;;;8.32;6.50;;;;;;;10.88;77.87;101100.59;5106246;28;20081;-86
2023/12/01 05:08:09;;;;;;;7.82;5.28;;;;;;;10.96;77.26;101104.56;5079709;28;20125;-86
2023/12/01 05:10:36;;;;;;;8.40;6.25;;;;;;;11.07;77.73;101123.47;5090645;28;20024;-84
2023/12/01 05:13:04;;;;;;;7.85;5.85;;;;;;;10.99;77.50;101119.50;5099461;28;20109;-86
2023/12/01 05:15:31;;;;;;;8.05;5.88;;;;;;;10.96;77.30;101115.00;5121024;27;20129;-86
2023/12/01 05:17:58;;;;;;;8.63;6.28;;;;;;;10.96;77.71;101114.09;5063489;28;20040;-86
2023/12/01 05:20:27;;;;;;;8.18;6.10;;;;;;;11.08;77.49;101142.66;5071530;28;20028;-84
2023/12/01 05:22:56;;;;;;;8.15;6.05;;;;;;;11.10;77.38;101144.53;5087635;28;20059;-84
2023/12/01 05:25:25;;;;;;;9.93;5.97;;;;;;;11.05;77.52;101146.00;5107546;27;20047;-85
2023/12/01 05:27:58;;;;;;;7.93;5.43;;;;;;;11.09;77.73;101149.66;5089925;28;20524;-84
2023/12/01 05:30:28;;;;;;;8.15;5.95;;;;;;;11.02;77.83;101144.91;5089270;28;20474;-85
2023/12/01 05:32:55;;;;;;;8.50;5.85;;;;;;;11.08;77.63;101154.00;5098142;28;20041;-84
2023/12/01 05:35:22;;;;;;;8.82;5.78;;;;;;;10.89;77.66;101111.94;5089172;28;20032;-83
2023/12/01 05:37:49;;;;;;;7.38;5.53;;;;;;;10.91;77.39;101124.28;5092295;28;20158;-83
2023/12/01 05:40:16;;;;;;;7.53;5.70;;;;;;;10.68;77.61;101083.75;5092527;28;20039;-82
2023/12/01 05:42:45;;;;;;;7.72;5.68;;;;;;;11.06;77.50;101153.00;5084634;28;20028;-84
2023/12/01 05:45:11;;;;;;;8.07;5.78;;;;;;;11.07;77.77;101152.22;5077438;28;20629;-84
2023/12/01 05:47:45;;;;;;;7.90;5.85;;;;;;;10.90;77.76;101112.03;5106758;27;20031;-85
2023/12/01 05:50:20;;;;;;;7.75;5.68;;;;;;;10.84;77.27;101105.53;5071189;28;20118;-84
2023/12/01 05:52:46;;;;;;;8.35;5.57;;;;;;;11.01;77.69;101141.41;5090269;28;20043;-84
2023/12/01 05:55:20;;;;;;;8.43;5.55;;;;;;;10.98;77.61;101125.53;5086441;28;20024;-86
2023/12/01 05:57:50;;;;;;;7.65;5.75;;;;;;;11.07;77.49;101157.44;5078840;28;20133;-85
2023/12/01 06:00:26;;;;;;;7.80;5.40;;;;;;;11.09;77.23;101158.44;5094762;28;20031;-85
2023/12/01 06:02:53;;;;;;;7.23;5.47;;;;;;;11.10;77.40;101154.09;5095631;28;20034;-86
2023/12/01 06:05:20;;;;;;;7.45;5.20;;;;;;;11.06;77.41;101152.13;5099973;28;20073;-86
2023/12/01 06:07:52;;;;;;;7.13;5.40;;;;;;;10.98;77.38;101143.81;5073284;28;20027;-86
2023/12/01 06:10:18;;;;;;;7.80;5.47;;;;;;;10.78;77.71;101117.44;5087861;28;20024;-86
2023/12/01 06:12:45;;;;;;;8.05;5.38;;;;;;;10.97;77.56;101142.03;5093354;28;20032;-85
2023/12/01 06:15:13;;;;;;;7.18;5.50;;;;;;;11.09;77.57;101160.13;5084659;28;20036;-87
2023/12/01 06:17:42;;;;;;;9.23;5.75;;;;;;;10.91;77.85;101121.66;5070847;28;20040;-86
2023/12/01 06:20:16;;;;;;;7.45;5.90;;;;;;;11.08;77.65;101151.38;5086149;28;20101;-86
2023/12/01 06:22:59;;;;;;;7.30;5.30;;;;;;;10.97;77.29;101127.25;5089395;28;20035;-86
2023/12/01 06:25:31;;;;;;;7.38;5.55;;;;;;;11.01;77.66;101138.78;5079088;28;20050;-86
2023/12/01 06:28:02;;;;;;;8.13;5.30;;;;;;;10.93;77.86;101127.88;5079764;28;20024;-91
2023/12/01 06:30:33;;;;;;;8.80;6.15;;;;;;;11.07;77.50;101149.59;5086604;28;20998;-86
2023/12/01 06:33:00;;;;;;;7.63;5.78;;;;;;;11.05;77.39;101142.47;5119523;27;20500;-87
2023/12/01 06:35:26;;;;;;;8.77;6.05;;;;;;;11.08;77.53;101140.03;5080443;28;20035;-88
2023/12/01 06:37:51;;;;;;;8.43;6.10;;;;;;;10.95;77.60;101114.91;5118992;27;20033;-87
2023/12/01 06:40:18;;;;;;;7.88;5.70;;;;;;;11.06;77.71;101139.03;5083199;28;20027;-86
2023/12/01 06:42:45;;;;;;;9.15;5.70;;;;;;;11.06;77.74;101133.81;5088789;28;20097;-84
2023/12/01 06:45:12;;;;;;;6.47;4.93;;;;;;;10.91;77.12;101105.97;5083984;28;20031;-87
2023/12/01 06:47:40;;;;;;;7.90;5.47;;;;;;;11.09;77.10;101142.75;5090477;28;20032;-85
2023/12/01 06:50:10;;;;;;;9.10;5.75;;;;;;;10.92;77.48;101109.50;5078906;28;20482;-84
2023/12/01 06:52:39;;;;;;;6.88;5.47;;;;;;;10.94;77.31;101110.47;5093640;28;20434;-84
2023/12/01 06:55:07;;;;;;;8.40;5.55;;;;;;;11.07;77.07;101135.59;5100178;28;20035;-84
2023/12/01 06:57:38;;;;;;;7.57;5.88;;;;;;;11.03;77.45;101142.38;5105597;28;20404;-84
2023/12/01 07:00:09;;;;;;;7.43;5.55;;;;;;;10.95;77.48;101128.88;5081185;28;20108;-84
2023/12/01 07:02:38;;;;;;;8.40;5.90;;;;;;;10.97;77.67;101132.47;5072818;28;20023;-83
2023/12/01 07:05:19;;;;;;;8.13;5.75;;;;;;;11.08;77.29;101151.38;5078710;28;20024;-85
2023/12/01 07:07:45;;;;;;;8.05;5.55;;;;;;;11.09;76.96;101147.97;5069568;28;20024;-85
2023/12/01 07:10:11;;;;;;;;;;;;;;;11.11;77.20;101148.03;5071517;28;20028;-85
2023/12/01 07:12:36;;;;;;;9.57;5.82;;;;;;;11.09;77.25;101149.66;5090378;28;20404;-85
2023/12/01 07:15:02;;;;;;;7.85;5.80;;;;;;;11.05;77.57;101145.06;5076710;28;20159;-86
2023/12/01 07:17:29;;;;;;;8.23;5.43;;;;;;;10.76;77.58;101097.25;5072854;28;20021;-85
2023/12/01 07:19:55;;;;;;;7.72;5.50;;;;;;;10.85;77.30;101116.06;5072071;28;20040;-85
2023/12/01 07:22:22;;;;;;;;;;;;;;;11.07;77.41;101146.06;5089619;28;20096;-85
2023/12/01 07:24:49;;;;;;;8.15;5.60;;;;;;;10.87;77.31;101111.84;5086593;28;19927;-85
2023/12/01 07:27:14;;;;;;;8.13;5.68;;;;;;;10.90;77.35;101122.50;5093076;28;20058;-85
2023/12/01 07:29:42;;;;;;;6.72;5.28;;;;;;;11.00;77.54;101139.59;5089452;28;20496;-84
2023/12/01 07:32:07;;;;;;;7.55;5.55;;;;;;;10.88;77.44;101124.09;5070985;28;20041;-85
2023/12/01 07:34:33;;;;;;;7.32;5.38;;;;;;;11.03;77.13;101149.31;5084943;28;20089;-84
2023/12/01 07:36:59;;;;;;;7.80;5.72;;;;;;;10.97;77.39;101129.84;5087162;28;20050;-84
2023/12/01 07:39:25;;;;;;;6.53;5.07;;;;;;;10.87;77.52;101116.16;5089160;28;20432;-85
2023/12/01 07:41:50;;;;;;;7.70;5.45;;;;;;;11.11;77.03;101155.88;5090986;28;20085;-85
2023/12/01 07:44:17;;;;;;;7.35;5.47;;;;;;;11.08;77.18;101145.25;5079315;28;20028;-84
2023/12/01 07:46:43;;;;;;;8.13;5.28;;;;;;;10.86;77.20;101115.28;5089507;28;20532;-84
2023/12/01 07:49:11;;;;;;;9.77;7.15;;;;;;;10.90;77.54;101117.25;5082383;28;20025;-84
2023/12/01 07:51:38;;;;;;;7.47;5.47;;;;;;;10.83;77.49;101107.25;5070791;28;20032;-84
2023/12/01 07:54:04;;;;;;;8.25;5.40;;;;;;;11.02;78.00;101129.22;5100424;28;20040;-84
2023/12/01 07:56:29;;;;;;;;;;;;;;;11.03;78.02;101145.00;5077175;28;20037;-84
2023/12/01 07:58:55;;;;;;;8.10;5.97;;;;;;;10.80;77.84;101102.75;5081266;28;20010;-84
2023/12/01 08:01:22;;;;;;;7.68;5.72;;;;;;;10.68;78.11;101081.13;5089383;28;20024;-84
2023/12/01 08:03:48;;;;;;;9.07;6.15;;;;;;;10.90;77.99;101119.88;5088101;28;20119;-85
2023/12/01 08:06:16;;;;;;;9.20;6.07;;;;;;;10.72;78.48;101088.34;5085411;28;20111;-84
2023/12/01 08:08:42;;;;;;;8.10;5.80;;;;;;;10.55;78.11;101055.13;5088817;28;20020;-84
2023/12/01 08:11:08;;;;;;;9.90;5.93;;;;;;;11.02;78.25;101134.44;5090580;28;20038;-83
2023/12/01 08:13:34;;;;;;;7.72;5.50;;;;;;;10.88;78.64;101118.88;5085865;28;20115;-84
2023/12/01 08:16:00;;;;;;;10.20;5.43;;;;;;;10.70;77.96;101079.50;5098018;28;20113;-84
2023/12/01 08:18:26;;;;;;;8.15;5.60;;;;;;;11.02;78.11;101137.97;5084366;28;20028;-84
2023/12/01 08:20:52;;;;;;;6.88;5.78;;;;;;;10.91;78.12;101111.22;5079756;28;20039;-84
2023/12/01 08:23:18;;;;;;;9.25;5.40;;;;;;;10.94;77.68;101111.41;5080371;28;20024;-84
2023/12/01 08:25:43;;;;;;;8.25;5.80;;;;;;;11.03;78.25;101131.94;5081581;28;20119;-84
2023/12/01 08:28:10;;;;;;;6.57;5.13;;;;;;;10.89;77.77;101099.78;5109930;28;20024;-84
2023/12/01 08:30:36;;;;;;;;;;;;;;;11.04;77.95;101115.44;5110344;28;20422;-85
2023/12/01 08:33:02;;;;;;;7.90;5.28;;;;;;;10.51;78.19;101035.75;5090973;28;19958;-85
2023/12/01 08:35:28;;;;;;;9.32;5.82;;;;;;;11.04;78.21;101123.25;5078854;28;20035;-85
2023/12/01 08:37:54;;;;;;;7.00;5.75;;;;;;;11.03;78.22;101116.25;5065715;28;20493;-87
2023/12/01 08:40:20;;;;;;;8.07;5.55;;;;;;;11.02;78.26;101119.66;5072848;28;20040;-84
2023/12/01 08:42:46;;;;;;;7.88;5.50;;;;;;;10.97;78.34;101108.94;5104492;28;20409;-84
2023/12/01 08:45:12;;;;;;;7.97;5.43;;;;;;;10.83;77.88;101081.13;5084355;28;20036;-85
2023/12/01 08:47:39;;;;;;;7.90;5.72;;;;;;;10.89;78.42;101096.25;5086075;28;20461;-85
2023/12/01 08:50:05;;;;;;;7.70;5.93;;;;;;;11.03;78.37;101121.47;5092565;28;20051;-85
2023/12/01 08:52:31;;;;;;;7.28;5.65;;;;;;;10.78;78.24;101069.53;5082699;28;20032;-86
2023/12/01 08:54:58;;;;;;;7.50;5.40;;;;;;;10.92;78.13;101089.50;5085499;28;20035;-86
2023/12/01 08:57:24;;;;;;;9.15;6.00;;;;;;;10.83;78.33;101068.06;5091488;28;20413;-87
2023/12/01 08:59:50;;;;;;;7.28;5.22;;;;;;;11.03;78.56;101100.56;5096070;28;20482;-87
2023/12/01 09:02:15;;;;;;;6.47;5.28;;;;;;;10.95;78.62;101097.50;5072508;28;20115;-86
2023/12/01 09:04:41;;;;;;;7.88;5.80;;;;;;;10.89;78.67;101077.97;5086208;28;20035;-85
2023/12/01 09:07:07;;;;;;;7.00;4.93;;;;;;;11.05;78.52;101101.56;5074074;28;20040;-84
2023/12/01 09:09:33;;;;;;;8.35;5.85;;;;;;;10.88;78.10;101074.47;5093264;28;20031;-85
2023/12/01 09:11:58;;;;;;;8.93;5.55;;;;;;;11.05;78.69;101109.41;5084357;28;20029;-85
2023/12/01 09:14:24;;;;;;;8.05;5.63;;;;;;;10.84;78.63;101048.06;5085431;28;20039;-83
2023/12/01 09:16:50;;;;;;;7.50;5.32;;;;;;;10.93;78.51;101066.88;5086315;28;20122;-84
2023/12/01 09:19:15;;;;;;;7.07;5.18;;;;;;;10.88;78.18;101063.09;5073453;28;20071;-84
2023/12/01 09:21:41;;;;;;;7.13;5.30;;;;;;;10.93;78.68;101064.28;5092005;28;20032;-83
2023/12/01 09:24:07;;;;;;;6.90;5.10;;;;;;;10.98;78.01;101063.72;5091674;28;20044;-84
2023/12/01 09:26:32;;;;;;;8.15;5.53;;;;;;;11.09;78.64;101082.63;5092544;28;20028;-85
2023/12/01 09:28:58;;;;;;;8.65;5.47;;;;;;;11.02;78.67;101072.63;5084981;28;20043;-83
2023/12/01 09:31:24;;;;;;;8.02;5.55;;;;;;;10.97;78.72;101063.63;5091887;28;20019;-86
2023/12/01 09:33:50;;;;;;;7.15;5.32;;;;;;;11.08;78.78;101074.69;5084153;28;20145;-86
2023/12/01 09:36:18;;;;;;;8.18;5.60;;;;;;;10.76;78.29;101029.34;5068612;28;20028;-84
2023/12/01 09:38:44;;;;;;;8.43;6.07;;;;;;;11.11;78.57;101077.47;5060657;28;20123;-83
2023/12/01 09:41:11;;;;;;;10.50;6.68;;;;;;;11.05;78.42;101069.28;5090961;28;20424;-83
2023/12/01 09:43:38;;;;;;;;;;;;;;;11.10;78.79;101079.19;5081825;28;20038;-84
2023/12/01 09:46:05;;;;;;;25.60;13.75;;;;;;;10.86;79.06;101042.13;5090887;28;20085;-82
2023/12/01 09:48:34;;;;;;;56.88;26.27;;;;;;;11.12;78.95;101066.22;5089829;28;20032;-84
2023/12/01 09:51:00;;;;;;;18.75;10.55;;;;;;;11.04;78.90;101046.59;5082189;28;20486;-83
2023/12/01 09:53:25;;;;;;;29.02;14.88;;;;;;;11.02;78.86;101043.00;5088406;28;20031;-83
2023/12/01 09:55:51;;;;;;;18.58;10.95;;;;;;;11.02;78.91;101043.88;5084504;28;20027;-83
2023/12/01 09:58:19;;;;;;;18.00;9.93;;;;;;;11.10;78.59;101062.63;5092407;28;20031;-84
2023/12/01 10:00:48;;;;;;;15.65;9.40;;;;;;;11.17;78.54;101064.75;5078403;28;20030;-83
2023/12/01 10:03:13;;;;;;;12.90;8.38;;;;;;;11.00;78.71;101038.56;5089946;28;20024;-85
2023/12/01 10:05:40;;;;;;;12.45;8.05;;;;;;;11.16;78.51;101069.09;5088115;28;20021;-84
2023/12/01 10:08:06;;;;;;;14.15;8.48;;;;;;;11.14;78.73;101054.13;5101555;28;20039;-83
2023/12/01 10:10:33;;;;;;;12.07;7.85;;;;;;;11.04;78.43;101042.25;5072277;28;20028;-83
2023/12/01 10:13:04;;;;;;;14.40;8.00;;;;;;;11.14;78.93;101062.88;5102192;28;20028;-84
2023/12/01 10:15:30;;;;;;;12.10;7.25;;;;;;;11.11;78.59;101046.09;5090058;28;20493;-84
2023/12/01 10:18:16;;;;;;;13.60;7.70;;;;;;;11.20;79.05;101059.72;5091146;28;20089;-85
2023/12/01 10:21:02;;;;;;;14.00;7.47;;;;;;;11.23;78.86;101049.41;5084719;28;20020;-84
2023/12/01 10:23:28;;;;;;;11.45;7.63;;;;;;;11.01;78.91;101013.34;5087759;28;20031;-84
2023/12/01 10:25:54;;;;;;;;;;;;;;;11.19;78.95;101047.44;5090210;28;20034;-85
2023/12/01 10:28:21;;;;;;;11.60;7.00;;;;;;;11.21;78.45;101048.44;5090543;28;20371;-84
2023/12/01 10:30:54;;;;;;;13.35;7.45;;;;;;;11.22;78.67;101039.78;5107528;28;20068;-83
2023/12/01 10:33:21;;;;;;;13.52;7.82;;;;;;;11.02;79.13;101007.28;5080205;28;20024;-83
2023/12/01 10:36:08;;;;;;;11.35;7.53;;;;;;;11.24;78.73;101039.84;5090715;28;20110;-83
2023/12/01 10:38:35;;;;;;;11.25;7.50;;;;;;;11.26;78.34;101035.59;5072105;28;20103;-82
2023/12/01 10:41:03;;;;;;;11.48;7.38;;;;;;;11.14;78.27;101007.09;5105346;28;20549;-84
2023/12/01 10:43:29;;;;;;;10.27;7.00;;;;;;;11.27;78.45;101020.00;5087219;28;20055;-84
2023/12/01 10:45:59;;;;;;;14.65;7.78;;;;;;;11.10;78.60;100992.06;5101478;28;20082;-83
2023/12/01 10:48:27;;;;;;;10.43;6.60;;;;;;;10.99;78.36;100975.78;5088941;28;20046;-84
2023/12/01 10:50:54;;;;;;;10.85;7.05;;;;;;;11.28;78.29;101024.44;5091142;28;20028;-84
2023/12/01 10:53:24;;;;;;;10.05;6.80;;;;;;;11.23;78.30;101009.31;5105951;28;20085;-84
2023/12/01 10:55:50;;;;;;;11.32;7.35;;;;;;;11.04;78.81;100978.66;5077938;28;20026;-84
2023/12/01 10:58:25;;;;;;;9.60;6.60;;;;;;;11.30;78.30;101027.13;5088694;28;20033;-84
2023/12/01 11:01:00;;;;;;;11.45;6.95;;;;;;;11.30;78.84;101027.13;5070268;28;20024;-84
2023/12/01 11:03:29;;;;;;;12.25;7.38;;;;;;;11.33;78.97;101028.19;5086553;28;20074;-84
2023/12/01 11:06:21;;;;;;;10.40;6.60;;;;;;;11.34;78.97;101032.59;5091113;28;20026;-85
2023/12/01 11:08:54;;;;;;;11.25;7.35;;;;;;;11.29;78.83;101010.53;5097700;28;20027;-84
2023/12/01 11:11:38;;;;;;;11.57;7.13;;;;;;;11.27;78.82;101003.44;5085156;28;20024;-84
2023/12/01 11:14:20;;;;;;;11.38;6.78;;;;;;;11.33;79.04;101019.47;5086726;28;20101;-84
2023/12/01 11:16:49;;;;;;;12.52;7.60;;;;;;;11.12;78.66;100975.63;5070942;28;20076;-83
2023/12/01 11:19:15;;;;;;;11.73;6.85;;;;;;;11.30;78.96;100998.38;5097187;28;20030;-81
2023/12/01 11:21:44;;;;;;;9.40;6.30;;;;;;;11.33;78.67;101001.16;5085675;28;20052;-81
2023/12/01 11:24:31;;;;;;;10.45;7.45;;;;;;;11.35;78.89;101003.03;5089711;28;20500;-81
2023/12/01 11:27:04;;;;;;;9.90;6.60;;;;;;;11.43;78.59;101007.78;5089055;28;20059;-81
2023/12/01 11:29:36;;;;;;;9.90;6.72;;;;;;;11.40;78.86;100995.44;5080447;28;20382;-81
2023/12/01 11:32:05;;;;;;;9.90;6.88;;;;;;;11.36;79.04;100983.00;5105134;27;20029;-81